Terminal Aerodrome Forecast
Issued by NWS Topeka, KS

Home | Current Version | Previous Version | Graphics & Text | Print | Product List | Glossary On
Versions: 1 2 3 4 5 6 7 8 9 10 11 12 13 14 15 16 17 18
000
FTUS43 KTOP 290400 AAA
TAFTOP
TAF AMD
KTOP 290421Z 2904/2924 00000KT P6SM SKC
      TEMPO 2905/2907 3SM BR
     FM290700 00000KT 5SM BR SKC
      TEMPO 2909/2913 00000KT 1SM BR
     FM291400 15005KT P6SM SKC=

USA.gov is the U.S. government's official web portal to all federal, state and local government web resources and services.